Time;durP1;ratioP1;P1;durP2;ratioP2;P2;SDS_P1;SDS_P2;PMS_P1;PMS_P2;Temp;Humidity;BMP_temperature;BMP_pressure;BME280_temperature;BME280_humidity;BME280_pressure;Samples;Min_cycle;Max_cycle;Signal;HPM_P1;HPM_P2
2022/11/29 00:02:10;;;;;;;;;;;9.60;99.90;;;;;;4993196;28;19975;-63
2022/11/29 00:04:38;;;;;;;;;;;9.50;99.90;;;;;;4993024;28;19976;-63
2022/11/29 00:07:06;;;;;;;;;;;9.50;99.90;;;;;;4974613;28;19972;-63
2022/11/29 00:09:34;;;;;;;;;;;9.50;99.90;;;;;;4972506;28;20382;-63
2022/11/29 00:12:13;;;;;;;;;;;9.50;99.90;;;;;;4972634;28;19976;-63
2022/11/29 00:14:41;;;;;;;;;;;9.40;99.90;;;;;;4973690;28;19969;-63
2022/11/29 00:17:11;;;;;;;;;;;9.40;99.90;;;;;;4973719;28;19969;-63
2022/11/29 00:19:38;;;;;;;;;;;9.40;99.90;;;;;;4972876;28;19974;-62
2022/11/29 00:22:06;;;;;;;;;;;9.40;99.90;;;;;;4973300;28;19977;-63
2022/11/29 00:24:35;;;;;;;;;;;9.40;99.90;;;;;;4973080;28;19970;-63
2022/11/29 00:27:03;;;;;;;;;;;9.40;99.90;;;;;;4973432;28;20465;-63
2022/11/29 00:29:31;;;;;;;;;;;9.40;99.90;;;;;;4972103;28;20461;-62
2022/11/29 00:31:59;;;;;;;;;;;9.40;99.90;;;;;;4972958;28;19976;-63
2022/11/29 00:34:28;;;;;;;;;;;9.50;99.90;;;;;;4954958;28;19974;-63
2022/11/29 00:36:55;;;;;;;;;;;9.50;99.90;;;;;;4970598;28;19970;-63
2022/11/29 00:39:23;;;;;;;;;;;9.50;99.90;;;;;;4973035;28;20449;-63
2022/11/29 00:41:51;;;;;;;;;;;9.50;99.90;;;;;;4972295;28;20469;-63
2022/11/29 00:44:19;;;;;;;;;;;9.40;99.90;;;;;;4985996;28;19970;-63
2022/11/29 00:46:48;;;;;;;;;;;9.40;99.90;;;;;;4973201;28;19973;-63
2022/11/29 00:49:15;;;;;;;;;;;9.40;99.90;;;;;;4973194;28;19976;-63
2022/11/29 00:51:44;;;;;;;;;;;9.30;99.90;;;;;;4972004;28;20358;-63
2022/11/29 00:54:12;;;;;;;;;;;9.30;99.90;;;;;;4973166;28;19969;-63
2022/11/29 00:56:40;;;;;;;;;;;9.30;99.90;;;;;;4973356;28;19969;-63
2022/11/29 00:59:08;;;;;;;;;;;9.30;99.90;;;;;;4973225;28;19977;-63
2022/11/29 01:01:35;;;;;;;;;;;9.40;99.90;;;;;;4971432;28;20072;-63
2022/11/29 01:04:03;;;;;;;;;;;9.40;99.90;;;;;;4973161;28;20064;-63
2022/11/29 01:06:31;;;;;;;;;;;9.40;99.90;;;;;;4972766;28;19973;-63
2022/11/29 01:09:00;;;;;;;;;;;9.40;99.90;;;;;;4972918;28;19976;-63
2022/11/29 01:11:28;;;;;;;;;;;9.40;99.90;;;;;;4971901;28;19976;-63
2022/11/29 01:13:57;;;;;;;;;;;9.40;99.90;;;;;;4972806;28;20374;-63
2022/11/29 01:16:25;;;;;;;;;;;9.50;99.90;;;;;;4973016;28;19970;-62
2022/11/29 01:18:53;;;;;;;;;;;9.50;99.90;;;;;;4971717;28;20435;-62
2022/11/29 01:21:22;;;;;;;;;;;9.50;99.90;;;;;;4974329;28;19977;-63
2022/11/29 01:23:50;;;;;;;;;;;9.50;99.90;;;;;;4976672;28;20072;-63
2022/11/29 01:26:20;;;;;;;;;;;9.50;99.90;;;;;;4976588;28;20324;-63
2022/11/29 01:28:49;;;;;;;;;;;9.40;99.90;;;;;;4976443;28;19974;-63
2022/11/29 01:31:17;;;;;;;;;;;9.50;99.90;;;;;;4975854;28;20161;-62
2022/11/29 01:33:45;;;;;;;;;;;9.50;99.90;;;;;;4963640;28;19970;-63
2022/11/29 01:36:14;;;;;;;;;;;9.50;99.90;;;;;;4967973;28;19966;-63
2022/11/29 01:38:42;;;;;;;;;;;9.50;99.90;;;;;;4976127;28;20004;-63
2022/11/29 01:41:12;;;;;;;;;;;9.50;99.90;;;;;;4975046;28;19983;-62
2022/11/29 01:43:58;;;;;;;;;;;9.50;99.90;;;;;;4976125;28;20072;-62
2022/11/29 01:46:26;;;;;;;;;;;9.50;99.90;;;;;;4976076;28;19973;-62
2022/11/29 01:48:57;;;;;;;;;;;9.60;99.90;;;;;;4976420;28;19973;-63
2022/11/29 01:51:25;;;;;;;;;;;9.50;99.90;;;;;;4975531;28;19969;-63
2022/11/29 01:53:53;;;;;;;;;;;9.50;99.90;;;;;;4975524;28;19969;-63
2022/11/29 01:56:21;;;;;;;;;;;9.50;99.90;;;;;;4975774;28;20538;-63
2022/11/29 01:58:49;;;;;;;;;;;9.50;99.90;;;;;;4976038;28;19973;-63
2022/11/29 02:01:18;;;;;;;;;;;9.50;99.90;;;;;;4975410;28;19969;-62
2022/11/29 02:03:46;;;;;;;;;;;9.50;99.90;;;;;;4976078;28;19969;-62
2022/11/29 02:06:15;;;;;;;;;;;9.60;99.90;;;;;;4975567;28;19970;-63
2022/11/29 02:08:46;;;;;;;;;;;9.60;99.90;;;;;;4975642;28;19969;-62
2022/11/29 02:11:24;;;;;;;;;;;9.50;99.90;;;;;;4974559;28;19969;-63
2022/11/29 02:13:58;;;;;;;;;;;9.50;99.90;;;;;;4975948;28;19980;-63
2022/11/29 02:16:30;;;;;;;;;;;9.50;99.90;;;;;;4975733;28;19969;-63
2022/11/29 02:19:01;;;;;;;;;;;9.50;99.90;;;;;;4976146;28;19985;-63
2022/11/29 02:21:38;;;;;;;;;;;9.40;99.90;;;;;;4975033;28;20365;-63
2022/11/29 02:24:14;;;;;;;;;;;9.40;99.90;;;;;;4975704;28;20491;-63
2022/11/29 02:27:00;;;;;;;;;;;9.40;99.90;;;;;;4974654;28;19976;-63
2022/11/29 02:30:01;;;;;;;;;;;9.50;99.90;;;;;;4968946;28;19973;-63
2022/11/29 02:32:54;;;;;;;;;;;9.50;99.90;;;;;;4974695;28;19979;-63
2022/11/29 02:35:30;;;;;;;;;;;9.60;99.90;;;;;;4975271;28;20449;-64
2022/11/29 02:38:06;;;;;;;;;;;9.60;99.90;;;;;;4975047;28;19965;-63
2022/11/29 02:40:38;;;;;;;;;;;9.70;99.90;;;;;;4974690;28;19970;-63
2022/11/29 02:43:30;;;;;;;;;;;9.70;99.90;;;;;;4975224;28;19970;-63
2022/11/29 02:46:04;;;;;;;;;;;9.70;99.90;;;;;;4950330;29;20089;-63
2022/11/29 02:48:41;;;;;;;;;;;9.70;99.90;;;;;;4955950;29;19978;-63
2022/11/29 02:51:11;;;;;;;;;;;9.70;99.90;;;;;;4955239;28;19969;-63
2022/11/29 02:53:44;;;;;;;;;;;9.70;99.90;;;;;;4955721;29;19969;-63
2022/11/29 02:56:14;;;;;;;;;;;9.70;99.90;;;;;;4955783;29;19969;-63
2022/11/29 02:58:45;;;;;;;;;;;9.70;99.90;;;;;;4955769;29;19976;-63
2022/11/29 03:01:16;;;;;;;;;;;9.70;99.90;;;;;;4962732;28;19969;-63
2022/11/29 03:03:48;;;;;;;;;;;9.70;99.90;;;;;;4975148;28;19997;-63
2022/11/29 03:06:20;;;;;;;;;;;9.70;99.90;;;;;;4974525;28;19965;-64
2022/11/29 03:08:52;;;;;;;;;;;9.80;99.90;;;;;;4974667;28;19970;-63
2022/11/29 03:11:23;;;;;;;;;;;9.80;99.90;;;;;;4973942;28;19970;-63
2022/11/29 03:13:55;;;;;;;;;;;9.80;99.90;;;;;;4975041;28;19974;-63
2022/11/29 03:16:28;;;;;;;;;;;9.90;99.90;;;;;;4974627;28;19976;-63
2022/11/29 03:19:04;;;;;;;;;;;9.90;99.90;;;;;;4974046;28;20112;-63
2022/11/29 03:21:38;;;;;;;;;;;9.90;99.90;;;;;;4974043;28;19970;-63
2022/11/29 03:24:09;;;;;;;;;;;9.90;99.90;;;;;;4974742;28;19977;-63
2022/11/29 03:26:40;;;;;;;;;;;9.90;99.90;;;;;;4974450;28;19973;-63
2022/11/29 03:29:11;;;;;;;;;;;10.00;99.90;;;;;;4974647;28;19973;-63
2022/11/29 03:31:43;;;;;;;;;;;10.00;99.90;;;;;;4973755;28;20383;-62
2022/11/29 03:34:16;;;;;;;;;;;10.00;99.90;;;;;;4974367;28;19973;-63
2022/11/29 03:36:47;;;;;;;;;;;9.90;99.90;;;;;;4969984;28;19981;-63
2022/11/29 03:39:18;;;;;;;;;;;9.90;99.90;;;;;;4974141;28;19970;-63
2022/11/29 03:41:48;;;;;;;;;;;9.90;99.90;;;;;;4974512;28;19969;-62
2022/11/29 03:44:18;;;;;;;;;;;9.70;99.90;;;;;;4974247;28;19997;-63
2022/11/29 03:46:50;;;;;;;;;;;9.60;99.90;;;;;;4973843;28;19969;-63
2022/11/29 03:49:22;;;;;;;;;;;9.60;99.90;;;;;;4980770;28;19971;-63
2022/11/29 03:51:55;;;;;;;;;;;9.50;99.90;;;;;;4986603;28;19969;-63
2022/11/29 03:54:25;;;;;;;;;;;9.50;99.90;;;;;;4974255;28;19974;-63
2022/11/29 03:56:53;;;;;;;;;;;9.50;99.90;;;;;;4973809;28;20336;-63
2022/11/29 03:59:29;;;;;;;;;;;9.50;99.90;;;;;;4973835;28;19974;-63
2022/11/29 04:02:04;;;;;;;;;;;9.50;99.90;;;;;;4973647;28;19980;-63
2022/11/29 04:04:56;;;;;;;;;;;9.60;99.90;;;;;;4973942;28;19976;-63
2022/11/29 04:07:34;;;;;;;;;;;9.60;99.90;;;;;;4934016;28;19974;-63
2022/11/29 04:10:08;;;;;;;;;;;9.60;99.90;;;;;;4972339;28;19980;-62
2022/11/29 04:12:41;;;;;;;;;;;9.70;99.90;;;;;;4973652;28;19976;-62
2022/11/29 04:15:27;;;;;;;;;;;9.70;99.90;;;;;;4973681;28;20399;-63
2022/11/29 04:18:03;;;;;;;;;;;9.60;99.90;;;;;;4973404;28;19976;-63
2022/11/29 04:20:50;;;;;;;;;;;9.50;99.90;;;;;;4973110;28;19969;-63
2022/11/29 04:23:27;;;;;;;;;;;9.50;99.90;;;;;;4973495;28;19975;-63
2022/11/29 04:26:18;;;;;;;;;;;9.40;99.90;;;;;;4972769;28;20357;-63
2022/11/29 04:28:59;;;;;;;;;;;9.40;99.90;;;;;;4973547;28;19991;-63
2022/11/29 04:31:33;;;;;;;;;;;9.30;99.90;;;;;;4973012;28;19969;-63
2022/11/29 04:34:19;;;;;;;;;;;9.30;99.90;;;;;;4973230;28;20424;-63
2022/11/29 04:37:07;;;;;;;;;;;9.40;99.90;;;;;;4973299;28;19965;-63
2022/11/29 04:39:49;;;;;;;;;;;9.30;99.90;;;;;;4972627;28;19976;-62
2022/11/29 04:42:27;;;;;;;;;;;9.30;99.90;;;;;;4972445;28;19969;-63
2022/11/29 04:45:06;;;;;;;;;;;9.20;99.90;;;;;;4973402;28;19977;-63
2022/11/29 04:47:45;;;;;;;;;;;9.20;99.90;;;;;;4973093;28;19975;-63
2022/11/29 04:50:18;;;;;;;;;;;9.20;99.90;;;;;;4972615;28;19984;-63
2022/11/29 04:52:55;;;;;;;;;;;9.30;99.90;;;;;;4972815;28;19970;-63
2022/11/29 04:55:33;;;;;;;;;;;9.30;99.90;;;;;;4970551;28;20469;-63
2022/11/29 04:58:07;;;;;;;;;;;9.40;99.90;;;;;;4961800;28;19973;-63
2022/11/29 05:00:39;;;;;;;;;;;9.30;99.90;;;;;;4968450;28;19973;-63
2022/11/29 05:03:11;;;;;;;;;;;9.20;99.90;;;;;;4968723;28;19973;-64
2022/11/29 05:05:43;;;;;;;;;;;9.10;99.90;;;;;;4963591;28;19981;-63
2022/11/29 05:08:20;;;;;;;;;;;8.90;99.90;;;;;;4970776;28;19980;-63
2022/11/29 05:10:52;;;;;;;;;;;8.90;99.90;;;;;;4970578;28;20068;-63
2022/11/29 05:13:26;;;;;;;;;;;8.70;99.90;;;;;;4972853;28;19973;-62
2022/11/29 05:16:06;;;;;;;;;;;8.60;99.90;;;;;;4971703;28;19973;-63
2022/11/29 05:18:56;;;;;;;;;;;8.50;99.90;;;;;;4963995;28;19965;-63
2022/11/29 05:21:27;;;;;;;;;;;8.40;99.90;;;;;;4972782;28;19973;-63
2022/11/29 05:23:59;;;;;;;;;;;8.40;99.90;;;;;;4964446;28;19988;-63
2022/11/29 05:26:29;;;;;;;;;;;8.30;99.90;;;;;;4966529;28;19984;-63
2022/11/29 05:29:00;;;;;;;;;;;8.20;99.90;;;;;;4964723;28;20347;-63
2022/11/29 05:31:34;;;;;;;;;;;8.30;99.90;;;;;;4965483;28;20442;-63
2022/11/29 05:34:11;;;;;;;;;;;8.20;99.90;;;;;;4968859;28;19972;-63
2022/11/29 05:36:43;;;;;;;;;;;8.20;99.90;;;;;;4968898;28;19980;-63
2022/11/29 05:39:19;;;;;;;;;;;8.10;99.90;;;;;;4972405;28;19980;-63
2022/11/29 05:41:55;;;;;;;;;;;8.20;99.90;;;;;;4964613;28;20694;-62
2022/11/29 05:44:27;;;;;;;;;;;8.10;99.90;;;;;;4967766;28;19974;-63
2022/11/29 05:46:58;;;;;;;;;;;8.00;99.90;;;;;;4965759;28;19977;-61
2022/11/29 05:49:31;;;;;;;;;;;8.10;99.90;;;;;;4965194;28;20060;-63
2022/11/29 05:52:13;;;;;;;;;;;8.10;99.90;;;;;;4971164;28;19977;-63
2022/11/29 05:54:44;;;;;;;;;;;8.10;99.90;;;;;;4963550;28;19973;-63
2022/11/29 05:57:19;;;;;;;;;;;8.00;99.90;;;;;;4968051;28;19973;-63
2022/11/29 05:59:48;;;;;;;;;;;8.00;99.90;;;;;;4971909;28;19984;-63
2022/11/29 06:02:24;;;;;;;;;;;7.90;99.90;;;;;;4970205;28;19973;-63
2022/11/29 06:04:58;;;;;;;;;;;7.90;99.90;;;;;;4967546;28;20009;-63
2022/11/29 06:07:29;;;;;;;;;;;7.90;99.90;;;;;;4966285;28;20020;-63
2022/11/29 06:09:59;;;;;;;;;;;7.90;99.90;;;;;;4970463;28;19965;-62
2022/11/29 06:12:33;;;;;;;;;;;7.90;99.90;;;;;;4971924;28;20438;-62
2022/11/29 06:15:16;;;;;;;;;;;7.90;99.90;;;;;;4970432;28;19988;-62
2022/11/29 06:17:54;;;;;;;;;;;7.90;99.90;;;;;;4968069;28;21420;-62
2022/11/29 06:20:39;;;;;;;;;;;7.90;99.90;;;;;;4969897;28;19973;-63
2022/11/29 06:23:17;;;;;;;;;;;7.80;99.90;;;;;;4968064;28;19973;-63
2022/11/29 06:25:55;;;;;;;;;;;7.90;99.90;;;;;;4969441;28;20023;-62
2022/11/29 06:28:38;;;;;;;;;;;7.90;99.90;;;;;;4969436;28;19969;-62
2022/11/29 06:31:11;;;;;;;;;;;7.80;99.90;;;;;;4970950;28;20361;-63
2022/11/29 06:33:45;;;;;;;;;;;7.80;99.90;;;;;;4974263;28;20056;-63
2022/11/29 06:36:15;;;;;;;;;;;7.70;99.90;;;;;;4973875;28;19965;-62
2022/11/29 06:38:43;;;;;;;;;;;7.80;99.90;;;;;;4974811;28;20405;-62
2022/11/29 06:41:14;;;;;;;;;;;7.70;99.90;;;;;;4974048;28;19982;-62
2022/11/29 06:43:43;;;;;;;;;;;7.70;99.90;;;;;;4975293;28;20028;-63
2022/11/29 06:46:15;;;;;;;;;;;7.70;99.90;;;;;;4974688;28;20359;-62
2022/11/29 06:48:45;;;;;;;;;;;7.70;99.90;;;;;;4974899;28;20027;-63
2022/11/29 06:51:18;;;;;;;;;;;7.70;99.90;;;;;;4974374;28;19974;-62
2022/11/29 06:53:50;;;;;;;;;;;7.70;99.90;;;;;;4975074;28;20338;-63
2022/11/29 06:56:21;;;;;;;;;;;7.70;99.90;;;;;;4975392;28;19976;-62
2022/11/29 06:58:57;;;;;;;;;;;7.60;99.90;;;;;;4975081;28;19970;-63
2022/11/29 07:01:30;;;;;;;;;;;7.70;99.90;;;;;;4974012;28;19976;-63
2022/11/29 07:04:06;;;;;;;;;;;7.70;99.90;;;;;;4974904;28;19988;-62
2022/11/29 07:06:35;;;;;;;;;;;7.70;99.90;;;;;;4975105;28;19973;-63
2022/11/29 07:09:09;;;;;;;;;;;7.70;99.90;;;;;;4974645;28;19969;-62
2022/11/29 07:11:37;;;;;;;;;;;7.80;99.90;;;;;;4974223;28;19970;-62
2022/11/29 07:14:06;;;;;;;;;;;7.80;99.90;;;;;;4974908;28;19976;-63
2022/11/29 07:16:38;;;;;;;;;;;7.70;99.90;;;;;;4974796;28;20354;-62
2022/11/29 07:19:10;;;;;;;;;;;7.70;99.90;;;;;;4974521;28;20391;-62
2022/11/29 07:21:44;;;;;;;;;;;7.80;99.90;;;;;;4974103;28;19969;-62
2022/11/29 07:24:20;;;;;;;;;;;7.70;99.90;;;;;;4975085;28;20005;-63
2022/11/29 07:26:55;;;;;;;;;;;7.80;99.90;;;;;;4974541;28;19976;-62
2022/11/29 07:29:32;;;;;;;;;;;7.70;99.90;;;;;;4974288;28;19980;-63
2022/11/29 07:32:07;;;;;;;;;;;7.70;99.90;;;;;;4974030;28;19965;-63
2022/11/29 07:34:38;;;;;;;;;;;7.80;99.90;;;;;;4974787;28;19970;-63
2022/11/29 07:37:09;;;;;;;;;;;7.90;99.90;;;;;;4974641;28;19976;-63
2022/11/29 07:39:43;;;;;;;;;;;7.90;99.90;;;;;;4973360;28;20068;-62
2022/11/29 07:42:16;;;;;;;;;;;7.90;99.90;;;;;;4973919;28;20064;-63
2022/11/29 07:44:50;;;;;;;;;;;8.00;99.90;;;;;;4974499;28;19976;-62
2022/11/29 07:47:18;;;;;;;;;;;8.00;99.90;;;;;;4973960;28;19970;-62
2022/11/29 07:49:46;;;;;;;;;;;8.00;99.90;;;;;;4973362;28;20085;-62
2022/11/29 07:52:14;;;;;;;;;;;8.00;99.90;;;;;;4973856;28;19969;-62
2022/11/29 07:54:42;;;;;;;;;;;8.10;99.90;;;;;;4974231;28;20355;-63
2022/11/29 07:57:11;;;;;;;;;;;8.00;99.90;;;;;;4973888;28;20320;-62
2022/11/29 07:59:38;;;;;;;;;;;8.10;99.90;;;;;;4973070;28;20072;-62
2022/11/29 08:02:10;;;;;;;;;;;8.10;99.90;;;;;;4973553;28;19988;-62
2022/11/29 08:04:40;;;;;;;;;;;8.00;99.90;;;;;;4965879;28;20023;-63
2022/11/29 08:07:08;;;;;;;;;;;8.10;99.90;;;;;;4973716;28;19970;-63
2022/11/29 08:09:36;;;;;;;;;;;8.10;99.90;;;;;;4972893;28;19973;-62
2022/11/29 08:12:04;;;;;;;;;;;8.10;99.90;;;;;;4973598;28;19973;-63
2022/11/29 08:14:32;;;;;;;;;;;8.10;99.90;;;;;;4973799;28;19976;-63
2022/11/29 08:17:00;;;;;;;;;;;8.10;99.90;;;;;;4973273;28;19980;-62
2022/11/29 08:19:29;;;;;;;;;;;8.10;99.90;;;;;;4973274;28;19977;-62
2022/11/29 08:21:56;;;;;;;;;;;8.10;99.90;;;;;;4973065;28;20551;-63
2022/11/29 08:24:25;;;;;;;;;;;8.10;99.90;;;;;;4973525;28;20547;-63
2022/11/29 08:26:53;;;;;;;;;;;8.10;99.90;;;;;;4973431;28;20384;-63
2022/11/29 08:29:20;;;;;;;;;;;8.10;99.90;;;;;;4973483;28;20328;-63
2022/11/29 08:31:52;;;;;;;;;;;8.10;99.90;;;;;;4971903;28;20322;-62
2022/11/29 08:34:20;;;;;;;;;;;8.10;99.90;;;;;;4973215;28;19973;-62
2022/11/29 08:36:49;;;;;;;;;;;8.10;99.90;;;;;;4973281;28;19976;-63
2022/11/29 08:39:16;;;;;;;;;;;8.10;99.90;;;;;;4973108;28;19975;-63
2022/11/29 08:41:44;;;;;;;;;;;8.20;99.90;;;;;;4972371;28;20353;-63
2022/11/29 08:44:12;;;;;;;;;;;8.20;99.90;;;;;;4973121;28;19980;-62
2022/11/29 08:49:25;;;;;;;;;;;8.20;99.90;;;;;;4973136;28;20328;-63
2022/11/29 08:53:40;;;;;;;;;;;8.10;99.90;;;;;;4972536;28;20052;-63
2022/11/29 08:54:41;;;;;;;;;;;8.10;99.90;;;;;;4972982;28;19973;-62
2022/11/29 08:57:09;;;;;;;;;;;8.10;99.90;;;;;;4973208;28;19973;-63
2022/11/29 08:59:57;;;;;;;;;;;8.10;99.90;;;;;;4972240;28;19976;-63
2022/11/29 09:02:25;;;;;;;;;;;8.10;99.90;;;;;;4972673;28;20023;-63
2022/11/29 09:04:53;;;;;;;;;;;8.00;99.90;;;;;;4972892;28;20402;-62
2022/11/29 09:07:22;;;;;;;;;;;7.90;99.90;;;;;;4972888;28;19978;-63
2022/11/29 09:09:50;;;;;;;;;;;8.00;99.90;;;;;;4972102;28;20023;-63
2022/11/29 09:12:18;;;;;;;;;;;8.00;99.90;;;;;;4972710;28;20461;-63
2022/11/29 09:14:45;;;;;;;;;;;8.10;99.90;;;;;;4973032;28;20358;-62
2022/11/29 09:17:13;;;;;;;;;;;8.10;99.90;;;;;;4972937;28;20061;-63
2022/11/29 09:19:41;;;;;;;;;;;8.10;99.90;;;;;;4971950;28;19970;-63
2022/11/29 09:22:09;;;;;;;;;;;8.20;99.90;;;;;;4972852;28;19992;-62
2022/11/29 09:24:38;;;;;;;;;;;8.20;99.90;;;;;;4973135;28;19969;-63
2022/11/29 09:27:06;;;;;;;;;;;8.20;99.90;;;;;;4972957;28;19969;-62
2022/11/29 09:29:33;;;;;;;;;;;8.20;99.90;;;;;;4972136;28;19970;-63
2022/11/29 09:32:01;;;;;;;;;;;8.30;99.90;;;;;;4972349;28;20056;-63
2022/11/29 09:34:29;;;;;;;;;;;8.30;99.90;;;;;;4972549;28;20523;-63
2022/11/29 09:36:57;;;;;;;;;;;8.30;99.90;;;;;;4972816;28;20076;-63
2022/11/29 09:39:25;;;;;;;;;;;8.30;99.90;;;;;;4972644;28;19983;-63
2022/11/29 09:42:17;;;;;;;;;;;8.30;99.90;;;;;;5000344;22;19969;-64
2022/11/29 09:44:51;;;;;;;;;;;8.30;99.90;;;;;;4988097;28;20056;-64
2022/11/29 09:47:25;;;;;;;;;;;8.40;99.90;;;;;;4978600;28;20020;-64
2022/11/29 09:50:00;;;;;;;;;;;8.30;99.90;;;;;;4975422;28;19973;-64
2022/11/29 09:52:33;;;;;;;;;;;8.30;99.90;;;;;;4976082;28;19980;-64
2022/11/29 09:55:08;;;;;;;;;;;8.40;99.90;;;;;;4976552;28;19974;-64
2022/11/29 09:57:38;;;;;;;;;;;8.40;99.90;;;;;;4976169;28;20064;-64
2022/11/29 10:00:13;;;;;;;;;;;8.50;99.90;;;;;;4975256;28;19979;-65
2022/11/29 10:02:46;;;;;;;;;;;8.50;99.90;;;;;;4990822;28;19971;-64
2022/11/29 10:05:16;;;;;;;;;;;8.60;99.90;;;;;;4979023;28;19969;-64
2022/11/29 10:07:47;;;;;;;;;;;8.60;99.90;;;;;;4975817;28;20387;-64
2022/11/29 10:10:17;;;;;;;;;;;8.60;99.90;;;;;;4974880;28;19980;-64
2022/11/29 10:12:48;;;;;;;;;;;8.60;99.90;;;;;;4975340;28;20406;-64
2022/11/29 10:15:18;;;;;;;;;;;8.60;99.90;;;;;;4975791;28;19969;-64
2022/11/29 10:17:50;;;;;;;;;;;8.60;99.90;;;;;;4975491;28;20465;-64
2022/11/29 10:20:20;;;;;;;;;;;8.60;99.90;;;;;;4974749;28;19973;-65
2022/11/29 10:22:52;;;;;;;;;;;8.60;99.90;;;;;;4975635;28;20366;-67
2022/11/29 10:25:22;;;;;;;;;;;8.70;99.90;;;;;;4975863;28;20027;-67
2022/11/29 10:27:52;;;;;;;;;;;8.70;99.90;;;;;;4975472;28;19976;-67
2022/11/29 10:30:20;;;;;;;;;;;8.70;99.90;;;;;;4974495;28;19977;-66
2022/11/29 10:32:50;;;;;;;;;;;8.70;99.90;;;;;;4991201;28;19965;-67
2022/11/29 10:35:19;;;;;;;;;;;8.70;99.90;;;;;;4977837;28;19969;-66
2022/11/29 10:37:48;;;;;;;;;;;8.80;99.90;;;;;;4975404;28;19977;-67
2022/11/29 10:40:38;;;;;;;;;;;8.90;99.90;;;;;;4974689;28;19980;-67
2022/11/29 10:43:07;;;;;;;;;;;8.90;99.90;;;;;;4975206;28;19976;-67
2022/11/29 10:45:38;;;;;;;;;;;8.90;99.90;;;;;;4975339;28;19970;-66
2022/11/29 10:48:07;;;;;;;;;;;9.00;99.90;;;;;;4975088;28;19976;-67
2022/11/29 10:50:35;;;;;;;;;;;9.00;99.90;;;;;;4974198;28;19970;-64
2022/11/29 10:53:05;;;;;;;;;;;8.90;99.90;;;;;;4974568;28;19973;-64
2022/11/29 10:55:36;;;;;;;;;;;8.90;99.90;;;;;;4975243;28;19976;-67
2022/11/29 10:58:10;;;;;;;;;;;8.90;99.90;;;;;;4975108;28;20427;-64
2022/11/29 11:00:45;;;;;;;;;;;8.90;99.90;;;;;;4974159;28;20442;-65
2022/11/29 11:03:15;;;;;;;;;;;9.00;99.90;;;;;;4990510;28;19965;-66
2022/11/29 11:05:54;;;;;;;;;;;9.00;99.90;;;;;;4974888;28;19988;-65
2022/11/29 11:08:24;;;;;;;;;;;8.90;99.90;;;;;;4974764;28;20063;-65
2022/11/29 11:10:52;;;;;;;;;;;8.90;99.90;;;;;;4973884;28;19996;-66
2022/11/29 11:13:30;;;;;;;;;;;8.80;99.90;;;;;;4974883;28;20024;-65
2022/11/29 11:15:58;;;;;;;;;;;8.70;99.90;;;;;;4974581;28;19970;-64
2022/11/29 11:18:29;;;;;;;;;;;8.70;99.90;;;;;;4974513;28;19979;-65
2022/11/29 11:20:58;;;;;;;;;;;8.80;99.90;;;;;;4973809;28;19973;-65
2022/11/29 11:23:28;;;;;;;;;;;8.80;99.90;;;;;;4974388;28;19979;-65
2022/11/29 11:25:57;;;;;;;;;;;8.80;99.90;;;;;;4974400;28;20441;-65
2022/11/29 11:28:27;;;;;;;;;;;8.80;99.90;;;;;;4974931;28;19973;-64
2022/11/29 11:30:57;;;;;;;;;;;8.80;99.90;;;;;;4974406;28;19976;-65
2022/11/29 11:33:26;;;;;;;;;;;8.80;99.90;;;;;;4991687;28;20319;-66
2022/11/29 11:36:00;;;;;;;;;;;8.80;99.90;;;;;;4974271;28;19970;-65
2022/11/29 11:38:28;;;;;;;;;;;8.80;99.90;;;;;;4974303;28;20447;-65
2022/11/29 11:41:02;;;;;;;;;;;8.90;99.90;;;;;;4973394;28;19978;-65
2022/11/29 11:43:30;;;;;;;;;;;8.90;99.90;;;;;;4973824;28;20064;-65
2022/11/29 11:45:59;;;;;;;;;;;8.90;99.90;;;;;;4974085;28;19976;-65
2022/11/29 11:48:27;;;;;;;;;;;8.90;99.90;;;;;;4973995;28;19981;-65
2022/11/29 11:50:56;;;;;;;;;;;9.00;99.90;;;;;;4973074;28;19969;-65
2022/11/29 11:53:26;;;;;;;;;;;9.00;99.90;;;;;;4973852;28;20323;-65
2022/11/29 11:55:56;;;;;;;;;;;9.10;99.90;;;;;;4974214;28;20076;-65
2022/11/29 11:58:26;;;;;;;;;;;9.10;99.90;;;;;;4973815;28;20461;-65
2022/11/29 12:00:54;;;;;;;;;;;9.20;99.90;;;;;;4973777;28;19970;-65
2022/11/29 12:03:44;;;;;;;;;;;9.20;99.90;;;;;;4990007;28;20438;-65
2022/11/29 12:06:27;;;;;;;;;;;9.20;99.90;;;;;;4972862;28;20016;-65
2022/11/29 12:08:57;;;;;;;;;;;9.20;99.90;;;;;;4972913;28;20019;-65
2022/11/29 12:11:25;;;;;;;;;;;9.20;99.90;;;;;;4972787;28;19982;-65
2022/11/29 12:13:55;;;;;;;;;;;9.20;99.90;;;;;;4973557;28;19970;-65
2022/11/29 12:16:27;;;;;;;;;;;9.30;99.90;;;;;;4973598;28;19969;-65
2022/11/29 12:19:00;;;;;;;;;;;9.40;99.90;;;;;;4973348;28;19969;-65
2022/11/29 12:21:31;;;;;;;;;;;9.50;99.90;;;;;;4973052;28;20353;-65
2022/11/29 12:24:02;;;;;;;;;;;9.50;99.90;;;;;;4973544;28;19973;-65
2022/11/29 12:26:30;;;;;;;;;;;9.50;99.90;;;;;;4973300;28;20009;-65
2022/11/29 12:29:21;;;;;;;;;;;9.60;99.90;;;;;;4973328;28;19970;-66
2022/11/29 12:31:57;;;;;;;;;;;9.50;99.90;;;;;;4978596;28;20445;-65
2022/11/29 12:34:33;;;;;;;;;;;9.50;99.90;;;;;;4990729;28;19965;-65
2022/11/29 12:37:06;;;;;;;;;;;9.50;99.90;;;;;;4992421;28;20446;-65
2022/11/29 12:39:39;;;;;;;;;;;9.50;99.90;;;;;;4992054;28;19975;-66
2022/11/29 12:42:11;;;;;;;;;;;9.50;99.90;;;;;;4992893;28;20027;-65
2022/11/29 12:44:45;;;;;;;;;;;9.50;99.90;;;;;;4992758;28;19973;-65
2022/11/29 12:47:21;;;;;;;;;;;9.50;99.90;;;;;;4992161;28;19973;-65
2022/11/29 12:50:14;;;;;;;;;;;9.60;99.90;;;;;;4991969;28;20004;-65
2022/11/29 12:52:47;;;;;;;;;;;9.70;99.90;;;;;;4992158;28;20055;-65
2022/11/29 12:55:19;;;;;;;;;;;9.70;99.90;;;;;;4992611;28;19975;-65
2022/11/29 12:57:51;;;;;;;;;;;9.70;99.90;;;;;;4992290;28;19979;-65
2022/11/29 13:00:19;;;;;;;;;;;9.80;99.90;;;;;;4991713;28;19969;-65
2022/11/29 13:02:52;;;;;;;;;;;9.80;99.90;;;;;;4991849;28;19969;-65
2022/11/29 13:05:25;;;;;;;;;;;9.80;99.90;;;;;;4975438;28;20021;-65
2022/11/29 13:08:01;;;;;;;;;;;9.80;99.90;;;;;;4972914;28;19976;-65
2022/11/29 13:10:33;;;;;;;;;;;9.80;99.90;;;;;;4972264;28;20025;-65
2022/11/29 13:13:04;;;;;;;;;;;9.80;99.90;;;;;;4972632;28;19984;-65
2022/11/29 13:15:36;;;;;;;;;;;9.80;99.90;;;;;;4972824;28;19980;-65
2022/11/29 13:18:11;;;;;;;;;;;9.80;99.90;;;;;;4975748;28;19977;-65
2022/11/29 13:20:42;;;;;;;;;;;9.70;99.90;;;;;;4976159;28;20016;-65
2022/11/29 13:23:15;;;;;;;;;;;9.60;99.90;;;;;;4976654;28;20455;-65
2022/11/29 13:25:45;;;;;;;;;;;9.60;99.90;;;;;;4976705;28;20506;-65
2022/11/29 13:28:17;;;;;;;;;;;9.60;99.90;;;;;;4976424;28;19970;-65
2022/11/29 13:30:45;;;;;;;;;;;9.60;99.90;;;;;;4975911;28;20357;-65
2022/11/29 13:33:17;;;;;;;;;;;9.60;99.90;;;;;;4992171;28;19965;-64
2022/11/29 13:35:49;;;;;;;;;;;9.60;99.90;;;;;;4976172;28;20362;-65
2022/11/29 13:38:19;;;;;;;;;;;9.60;99.90;;;;;;4976512;28;19973;-65
2022/11/29 13:40:51;;;;;;;;;;;9.60;99.90;;;;;;4975872;28;20029;-65
2022/11/29 13:43:21;;;;;;;;;;;9.60;99.90;;;;;;4975909;28;19970;-66
2022/11/29 13:45:52;;;;;;;;;;;9.60;99.90;;;;;;4976215;28;19976;-66
2022/11/29 13:48:33;;;;;;;;;;;9.60;99.90;;;;;;4976241;28;19975;-65
2022/11/29 13:51:15;;;;;;;;;;;9.50;99.90;;;;;;4975610;28;19984;-65
2022/11/29 13:53:44;;;;;;;;;;;9.40;99.90;;;;;;4975954;28;19973;-65
2022/11/29 13:56:24;;;;;;;;;;;9.40;99.90;;;;;;4976334;28;19977;-65
2022/11/29 13:58:53;;;;;;;;;;;9.40;99.90;;;;;;4976574;28;19969;-66
2022/11/29 14:01:22;;;;;;;;;;;9.40;99.90;;;;;;4979769;28;20075;-66
2022/11/29 14:04:00;;;;;;;;;;;9.40;99.90;;;;;;4990148;28;19965;-65
2022/11/29 14:06:32;;;;;;;;;;;9.40;99.90;;;;;;4975979;28;19976;-65
2022/11/29 14:09:21;;;;;;;;;;;9.40;99.90;;;;;;4975885;28;20074;-65
2022/11/29 14:11:50;;;;;;;;;;;9.40;99.90;;;;;;4974916;28;19995;-66
2022/11/29 14:14:21;;;;;;;;;;;9.40;99.90;;;;;;4975940;28;20033;-65
2022/11/29 14:16:50;;;;;;;;;;;9.20;99.90;;;;;;4975891;28;19969;-65
2022/11/29 14:19:19;;;;;;;;;;;9.30;99.90;;;;;;4975679;28;20072;-65
2022/11/29 14:22:06;;;;;;;;;;;9.30;99.90;;;;;;4974845;28;19975;-65
2022/11/29 14:24:41;;;;;;;;;;;9.30;99.90;;;;;;4975977;28;20028;-65
2022/11/29 14:27:27;;;;;;;;;;;9.40;99.90;;;;;;4975778;28;19973;-65
2022/11/29 14:29:55;;;;;;;;;;;9.40;99.90;;;;;;4973871;28;19983;-65
2022/11/29 14:32:24;;;;;;;;;;;9.40;99.90;;;;;;4987357;28;19969;-65
2022/11/29 14:34:54;;;;;;;;;;;9.50;99.90;;;;;;4981396;28;19973;-65
2022/11/29 14:37:25;;;;;;;;;;;9.50;99.90;;;;;;4975427;28;19970;-65
2022/11/29 14:39:56;;;;;;;;;;;9.60;99.90;;;;;;4974855;28;19976;-65
2022/11/29 14:42:26;;;;;;;;;;;9.60;99.90;;;;;;4974580;28;20359;-66
2022/11/29 14:44:54;;;;;;;;;;;9.60;99.90;;;;;;4975227;28;20454;-66
2022/11/29 14:47:24;;;;;;;;;;;9.60;99.90;;;;;;4975056;28;20049;-66
2022/11/29 14:49:53;;;;;;;;;;;9.60;99.90;;;;;;4974616;28;20433;-65
2022/11/29 14:52:24;;;;;;;;;;;9.50;99.90;;;;;;4974644;28;20097;-65
2022/11/29 14:54:53;;;;;;;;;;;9.50;99.90;;;;;;4975099;28;19969;-65
2022/11/29 14:57:51;;;;;;;;;;;9.50;99.90;;;;;;4974913;28;20439;-65
2022/11/29 15:00:19;;;;;;;;;;;9.50;99.90;;;;;;4974342;28;19973;-66
2022/11/29 15:02:49;;;;;;;;;;;9.50;99.90;;;;;;4990526;28;20450;-66
2022/11/29 15:05:18;;;;;;;;;;;9.50;99.90;;;;;;4977379;28;20092;-66